Time;durP1;ratioP1;P1;durP2;ratioP2;P2;SDS_P1;SDS_P2;PMS_P1;PMS_P2;Temp;Humidity;BMP_temperature;BMP_pressure;BME280_temperature;BME280_humidity;BME280_pressure;Samples;Min_cycle;Max_cycle;Signal;HPM_P1;HPM_P2
2021/04/15 00:02:23;;;;;;;16.65;11.27;;;;;;;4.83;67.26;100429.88;3567449;40;20045;-71
2021/04/15 00:04:50;;;;;;;13.50;11.00;;;;;;;4.82;67.21;100425.56;3567006;40;20077;-70
2021/04/15 00:07:16;;;;;;;15.65;12.30;;;;;;;4.85;67.38;100430.72;3560919;40;20074;-71
2021/04/15 00:09:42;;;;;;;13.52;10.85;;;;;;;4.89;67.52;100428.06;3567056;40;20315;-70
2021/04/15 00:12:10;;;;;;;13.50;10.43;;;;;;;4.90;67.44;100421.13;3559407;40;20070;-70
2021/04/15 00:14:39;;;;;;;13.57;11.15;;;;;;;4.88;67.44;100423.75;3559722;40;20029;-71
2021/04/15 00:17:07;;;;;;;13.82;10.93;;;;;;;4.89;67.62;100419.41;3559375;40;20034;-71
2021/04/15 00:19:36;;;;;;;15.73;12.05;;;;;;;4.87;67.83;100411.66;3559890;40;20037;-70
2021/04/15 00:22:03;;;;;;;11.18;9.85;;;;;;;4.89;67.77;100414.22;3559564;40;20061;-70
2021/04/15 00:24:31;;;;;;;9.75;8.75;;;;;;;4.92;67.87;100414.19;3559798;40;20041;-69
2021/04/15 00:26:58;;;;;;;10.90;8.77;;;;;;;4.90;67.78;100413.34;3558580;40;20047;-70
2021/04/15 00:29:26;;;;;;;11.57;7.43;;;;;;;4.91;68.03;100407.25;3560162;40;20062;-70
2021/04/15 00:31:55;;;;;;;8.57;6.93;;;;;;;4.88;68.15;100399.53;3560555;40;20347;-70
2021/04/15 00:34:21;;;;;;;8.07;6.53;;;;;;;4.91;68.12;100407.25;3567132;40;20034;-71
2021/04/15 00:36:48;;;;;;;7.25;6.35;;;;;;;4.94;68.00;100404.63;3560367;40;20042;-71
2021/04/15 00:39:16;;;;;;;7.97;6.20;;;;;;;4.96;68.00;100410.66;3559757;40;20307;-70
2021/04/15 00:41:42;;;;;;;8.13;6.15;;;;;;;4.95;68.27;100406.34;3559296;40;20391;-71
2021/04/15 00:44:08;;;;;;;7.55;5.80;;;;;;;4.96;68.32;100409.78;3560439;40;20355;-71
2021/04/15 00:46:57;;;;;;;6.50;5.75;;;;;;;4.96;68.42;100402.88;3560340;40;20034;-70
2021/04/15 00:49:29;;;;;;;8.32;6.43;;;;;;;5.01;68.13;100403.69;3560564;40;20038;-70
2021/04/15 00:51:59;;;;;;;7.13;6.40;;;;;;;5.06;67.98;100396.69;3560246;40;20394;-79
2021/04/15 00:54:41;;;;;;;7.87;6.23;;;;;;;5.05;68.21;100404.50;3561666;40;20070;-79
2021/04/15 00:57:10;;;;;;;;;;;;;;;5.20;67.66;100399.97;3569602;40;20340;-78
2021/04/15 00:59:37;;;;;;;6.90;5.20;;;;;;;5.09;67.61;100395.78;3561901;40;19969;-78
2021/04/15 01:02:05;;;;;;;7.60;5.68;;;;;;;5.06;68.23;100401.03;3560470;40;20037;-80
2021/04/15 01:04:32;;;;;;;7.43;5.95;;;;;;;5.06;68.20;100396.69;3560936;40;20310;-77
2021/04/15 01:06:58;;;;;;;6.93;5.63;;;;;;;5.06;68.06;100399.28;3560085;40;20034;-77
2021/04/15 01:09:26;;;;;;;7.38;5.75;;;;;;;5.07;68.21;100389.75;3559869;40;20078;-78
2021/04/15 01:12:04;;;;;;;8.93;6.03;;;;;;;5.05;68.53;100388.91;3568816;40;20030;-78
2021/04/15 01:14:48;;;;;;;7.90;5.60;;;;;;;5.08;68.53;100388.88;3559731;40;20420;-78
2021/04/15 01:17:26;;;;;;;6.88;5.13;;;;;;;5.08;68.62;100383.66;3568069;40;20086;-78
2021/04/15 01:20:23;;;;;;;8.25;5.57;;;;;;;5.09;68.37;100383.63;3560824;40;20407;-78
2021/04/15 01:23:02;;;;;;;7.93;5.82;;;;;;;5.10;68.13;100382.75;3529118;40;20031;-76
2021/04/15 01:25:58;;;;;;;8.05;5.07;;;;;;;5.14;68.27;100384.44;3560730;40;20073;-79
2021/04/15 01:28:56;;;;;;;6.75;5.45;;;;;;;5.16;68.10;100374.88;3561778;40;20030;-78
2021/04/15 01:31:40;;;;;;;6.05;4.93;;;;;;;5.14;68.08;100378.38;3561547;40;20070;-79
2021/04/15 01:34:12;;;;;;;6.68;4.78;;;;;;;5.12;68.03;100370.59;3559508;40;20035;-78
2021/04/15 01:36:45;;;;;;;6.25;5.32;;;;;;;5.06;68.34;100375.91;3561241;40;20041;-78
2021/04/15 01:39:19;;;;;;;5.72;4.78;;;;;;;5.05;68.50;100368.97;3561956;40;20045;-78
2021/04/15 01:41:54;;;;;;;6.15;5.20;;;;;;;5.01;68.46;100367.31;3559857;40;20038;-79
2021/04/15 01:44:26;;;;;;;6.35;5.15;;;;;;;5.03;68.40;100368.16;3561109;40;20104;-78
2021/04/15 01:47:03;;;;;;;7.55;5.70;;;;;;;5.06;68.70;100360.31;3558994;40;20030;-77
2021/04/15 01:49:35;;;;;;;6.53;4.82;;;;;;;5.08;68.50;100368.94;3569769;40;20099;-79
2021/04/15 01:52:02;;;;;;;6.20;5.13;;;;;;;5.09;68.41;100359.41;3568352;40;20030;-79
2021/04/15 01:54:34;;;;;;;8.45;5.40;;;;;;;5.09;68.30;100352.47;3569318;40;20045;-82
2021/04/15 01:57:06;;;;;;;6.60;5.15;;;;;;;5.09;68.49;100347.25;3567722;40;20041;-79
2021/04/15 01:59:40;;;;;;;6.95;5.30;;;;;;;5.12;68.43;100348.94;3568029;40;20398;-80
2021/04/15 02:02:13;;;;;;;7.45;5.15;;;;;;;5.13;68.60;100341.13;3568965;40;20037;-80
2021/04/15 02:04:43;;;;;;;7.80;5.63;;;;;;;5.12;68.48;100344.63;3569276;40;20307;-81
2021/04/15 02:07:12;;;;;;;7.00;5.15;;;;;;;5.09;68.38;100344.66;3569339;40;20089;-81
2021/04/15 02:09:40;;;;;;;8.43;5.40;;;;;;;5.11;68.42;100336.84;3568861;40;20037;-82
2021/04/15 02:12:10;;;;;;;6.65;5.47;;;;;;;5.09;68.45;100336.88;3568360;40;20042;-80
2021/04/15 02:14:42;;;;;;;7.70;5.32;;;;;;;5.12;68.45;100342.00;3568853;40;20067;-83
2021/04/15 02:17:12;;;;;;;9.68;6.00;;;;;;;5.18;68.26;100328.91;3568033;40;20034;-81
2021/04/15 02:19:43;;;;;;;8.73;6.07;;;;;;;5.19;68.23;100341.03;3567801;40;20307;-81
2021/04/15 02:22:18;;;;;;;6.30;5.53;;;;;;;5.19;68.14;100334.97;3568757;40;20086;-82
2021/04/15 02:24:52;;;;;;;7.07;5.45;;;;;;;5.17;68.32;100336.75;3567903;40;20378;-81
2021/04/15 02:27:23;;;;;;;8.77;5.65;;;;;;;5.19;68.24;100332.38;3569409;40;20064;-82
2021/04/15 02:29:58;;;;;;;6.60;5.50;;;;;;;5.16;68.48;100330.69;3569179;40;20386;-82
2021/04/15 02:32:28;;;;;;;8.20;6.13;;;;;;;5.17;68.29;100321.16;3568261;40;20121;-79
2021/04/15 02:35:00;;;;;;;6.68;5.60;;;;;;;5.16;68.25;100330.69;3569090;40;20029;-81
2021/04/15 02:37:39;;;;;;;8.65;6.07;;;;;;;5.15;68.47;100326.38;3577319;40;20119;-79
2021/04/15 02:40:10;;;;;;;7.22;6.03;;;;;;;5.13;68.30;100322.94;3569753;40;20119;-79
2021/04/15 02:42:37;;;;;;;;;;;;;;;5.24;67.97;100321.94;3579076;40;20042;-80
2021/04/15 02:45:19;;;;;;;5.90;5.30;;;;;;;5.09;68.16;100318.69;3576746;40;20159;-80
2021/04/15 02:47:48;;;;;;;;;;;;;;;5.23;68.07;100320.22;3569847;40;20033;-80
2021/04/15 02:50:18;;;;;;;8.57;6.78;;;;;;;5.10;67.98;100317.78;3568753;40;19976;-80
2021/04/15 02:52:49;;;;;;;8.77;7.53;;;;;;;5.11;68.32;100323.84;3569174;40;20038;-80
2021/04/15 02:55:19;;;;;;;9.13;7.50;;;;;;;5.12;68.42;100303.03;3569035;40;20040;-80
2021/04/15 02:57:49;;;;;;;10.43;8.50;;;;;;;5.18;68.10;100315.94;3568090;40;20086;-81
2021/04/15 03:00:22;;;;;;;10.95;9.25;;;;;;;5.23;68.11;100304.63;3568650;40;20280;-81
2021/04/15 03:02:52;;;;;;;13.65;10.10;;;;;;;5.27;68.10;100306.28;3567715;40;20038;-79
2021/04/15 03:05:21;;;;;;;11.48;9.43;;;;;;;5.27;68.27;100311.50;3567841;40;20042;-82
2021/04/15 03:07:48;;;;;;;12.25;10.55;;;;;;;5.24;68.24;100301.16;3568697;40;20151;-80
2021/04/15 03:10:17;;;;;;;13.25;11.48;;;;;;;5.24;68.08;100311.53;3568793;40;20065;-80
2021/04/15 03:12:47;;;;;;;14.57;11.38;;;;;;;5.22;68.31;100302.91;3568575;40;20034;-81
2021/04/15 03:15:18;;;;;;;15.43;12.13;;;;;;;5.26;68.34;100304.56;3568911;40;20033;-82
2021/04/15 03:17:49;;;;;;;14.60;12.30;;;;;;;5.30;68.36;100306.22;3568652;40;20029;-82
2021/04/15 03:20:21;;;;;;;16.47;13.20;;;;;;;5.32;68.17;100300.13;3568757;40;20118;-81
2021/04/15 03:22:52;;;;;;;15.13;12.57;;;;;;;5.32;67.93;100314.88;3568527;40;20369;-80
2021/04/15 03:25:19;;;;;;;14.63;11.88;;;;;;;5.31;68.10;100303.59;3568526;40;20061;-80
2021/04/15 03:27:53;;;;;;;14.85;11.85;;;;;;;5.28;68.10;100302.81;3569081;40;20065;-81
2021/04/15 03:30:28;;;;;;;12.38;10.93;;;;;;;5.27;68.00;100303.69;3569037;40;20037;-81
2021/04/15 03:33:02;;;;;;;14.05;10.23;;;;;;;5.22;68.37;100302.91;3567859;40;20119;-79
2021/04/15 03:35:34;;;;;;;13.20;10.52;;;;;;;5.17;68.34;100311.63;3568320;40;20033;-79
2021/04/15 03:38:05;;;;;;;14.68;11.65;;;;;;;5.19;68.55;100309.84;3569110;40;20040;-81
2021/04/15 03:40:33;;;;;;;;;;;;;;;5.34;67.78;100308.75;3569509;40;20304;-80
2021/04/15 03:43:03;;;;;;;13.18;10.25;;;;;;;5.24;68.04;100311.53;3569219;40;19933;-79
2021/04/15 03:45:34;;;;;;;15.30;11.68;;;;;;;5.24;68.27;100306.34;3569406;40;20111;-79
2021/04/15 03:48:04;;;;;;;14.65;10.68;;;;;;;5.23;68.14;100309.81;3571173;40;20083;-80
2021/04/15 03:50:41;;;;;;;12.55;9.85;;;;;;;5.21;68.19;100304.66;3570930;40;20037;-79
2021/04/15 03:53:10;;;;;;;12.18;9.63;;;;;;;5.18;68.34;100299.47;3568730;40;20042;-78
2021/04/15 03:55:39;;;;;;;11.55;9.32;;;;;;;5.20;68.54;100306.41;3567610;40;20111;-79
2021/04/15 03:58:10;;;;;;;10.18;8.88;;;;;;;5.22;68.51;100305.50;3572905;40;20099;-78
2021/04/15 04:00:39;;;;;;;;;;;;;;;5.34;68.01;100303.56;3576023;40;20036;-78
2021/04/15 04:03:10;;;;;;;10.45;8.20;;;;;;;5.20;67.95;100303.78;3572632;40;19937;-78
2021/04/15 04:05:39;;;;;;;9.60;8.33;;;;;;;5.20;68.26;100298.59;3568629;40;20034;-78
2021/04/15 04:08:11;;;;;;;10.65;8.00;;;;;;;5.23;68.21;100295.09;3567448;40;20044;-79
2021/04/15 04:10:41;;;;;;;9.88;8.30;;;;;;;5.19;68.39;100302.03;3568530;40;20057;-80
2021/04/15 04:13:18;;;;;;;8.55;7.10;;;;;;;5.18;68.41;100302.94;3568400;40;20184;-78
2021/04/15 04:15:50;;;;;;;7.32;6.53;;;;;;;5.20;68.47;100306.41;3568897;40;20139;-79
2021/04/15 04:18:23;;;;;;;7.30;6.15;;;;;;;5.25;68.10;100302.84;3568352;40;20045;-79
2021/04/15 04:20:53;;;;;;;6.35;5.28;;;;;;;5.22;68.46;100302.91;3568089;40;20045;-79
2021/04/15 04:23:30;;;;;;;6.03;5.13;;;;;;;5.16;68.52;100307.28;3575625;40;20040;-79
2021/04/15 04:26:05;;;;;;;5.57;4.53;;;;;;;5.21;68.04;100302.06;3568310;40;20041;-78
2021/04/15 04:28:37;;;;;;;5.75;4.72;;;;;;;5.18;68.36;100302.94;3568729;40;20040;-80
2021/04/15 04:31:08;;;;;;;5.85;4.63;;;;;;;5.14;68.31;100303.88;3575606;40;20037;-79
2021/04/15 04:33:40;;;;;;;6.32;4.57;;;;;;;5.18;68.43;100307.28;3568466;40;20044;-79
2021/04/15 04:36:09;;;;;;;5.43;4.85;;;;;;;5.23;68.26;100304.63;3567885;40;20301;-80
2021/04/15 04:38:36;;;;;;;5.63;5.03;;;;;;;5.28;67.88;100310.59;3568455;40;20045;-79
2021/04/15 04:41:08;;;;;;;7.90;5.50;;;;;;;5.30;67.88;100314.88;3567840;40;20026;-79
2021/04/15 04:43:43;;;;;;;6.93;4.72;;;;;;;5.33;67.93;100311.38;3568538;40;20240;-80
2021/04/15 04:46:15;;;;;;;6.25;4.90;;;;;;;5.32;67.91;100307.06;3568285;40;20120;-80
2021/04/15 04:48:50;;;;;;;6.05;4.60;;;;;;;5.36;67.94;100308.72;3569605;40;20040;-79
2021/04/15 04:51:20;;;;;;;4.88;4.38;;;;;;;5.37;67.86;100308.69;3569416;40;20038;-80
2021/04/15 04:53:48;;;;;;;5.57;4.72;;;;;;;5.42;67.65;100306.06;3568724;40;20192;-80
2021/04/15 04:56:23;;;;;;;4.70;4.15;;;;;;;5.44;67.58;100305.13;3569705;40;20037;-80
2021/04/15 04:58:51;;;;;;;6.32;3.90;;;;;;;5.43;67.55;100307.78;3577088;40;20033;-80
2021/04/15 05:01:19;;;;;;;5.15;4.25;;;;;;;5.39;67.43;100306.94;3569358;40;20343;-79
2021/04/15 05:03:45;;;;;;;7.07;4.78;;;;;;;5.40;67.41;100302.59;3569928;40;20479;-80
2021/04/15 05:06:21;;;;;;;5.50;4.75;;;;;;;5.42;67.73;100306.91;3569233;40;20041;-80
2021/04/15 05:08:55;;;;;;;5.97;4.72;;;;;;;5.46;67.56;100300.78;3569890;40;20073;-79
2021/04/15 05:11:22;;;;;;;6.63;4.88;;;;;;;5.49;67.37;100302.44;3569599;40;20092;-78
2021/04/15 05:13:50;;;;;;;8.70;6.32;;;;;;;5.56;67.45;100304.06;3569063;40;20072;-79
2021/04/15 05:16:16;;;;;;;5.97;4.72;;;;;;;5.59;67.29;100297.94;3569522;40;20029;-79
2021/04/15 05:18:44;;;;;;;6.30;5.05;;;;;;;5.60;67.30;100300.50;3569747;40;20034;-79
2021/04/15 05:21:15;;;;;;;5.57;4.60;;;;;;;5.62;67.17;100298.78;3569312;40;20350;-79
2021/04/15 05:23:44;;;;;;;;;;;;;;;5.82;66.72;100306.19;3570455;40;20034;-79
2021/04/15 05:26:14;;;;;;;6.25;4.47;;;;;;;5.70;66.90;100306.44;3569488;40;19933;-79
2021/04/15 05:28:42;;;;;;;5.30;3.90;;;;;;;5.63;67.22;100297.88;3569895;40;20041;-79
2021/04/15 05:31:12;;;;;;;6.05;4.68;;;;;;;5.58;67.48;100304.03;3569043;40;20030;-80
2021/04/15 05:33:39;;;;;;;9.52;6.60;;;;;;;5.59;67.45;100293.59;3569809;40;20069;-80
2021/04/15 05:36:11;;;;;;;7.70;5.35;;;;;;;5.57;67.24;100295.38;3569375;40;20110;-81
2021/04/15 05:38:42;;;;;;;8.15;5.57;;;;;;;5.62;67.32;100301.38;3568276;40;20291;-80
2021/04/15 05:41:16;;;;;;;7.13;5.43;;;;;;;5.68;67.02;100296.06;3568949;40;20087;-78
2021/04/15 05:43:46;;;;;;;6.82;4.70;;;;;;;5.63;67.33;100295.28;3569592;40;20033;-78
2021/04/15 05:46:19;;;;;;;7.95;5.63;;;;;;;5.66;67.10;100300.44;3569704;40;20029;-77
2021/04/15 05:48:48;;;;;;;4.60;3.83;;;;;;;5.66;67.03;100300.44;3565781;40;20049;-78
2021/04/15 05:51:21;;;;;;;6.18;4.72;;;;;;;5.74;67.02;100292.47;3559485;40;20049;-76
2021/04/15 05:53:53;;;;;;;6.53;5.00;;;;;;;5.89;66.74;100294.81;3564130;40;20118;-76
2021/04/15 05:56:24;;;;;;;5.88;4.85;;;;;;;5.95;66.58;100301.66;3574095;40;20037;-75
2021/04/15 05:58:59;;;;;;;6.10;4.65;;;;;;;5.95;66.73;100291.25;3580657;40;20075;-77
2021/04/15 06:01:33;;;;;;;5.18;4.47;;;;;;;6.02;66.42;100298.91;3570457;40;20033;-78
2021/04/15 06:04:07;;;;;;;6.13;4.88;;;;;;;6.05;66.35;100295.41;3568801;40;20034;-78
2021/04/15 06:06:38;;;;;;;4.68;4.22;;;;;;;6.09;66.51;100290.13;3568839;40;20029;-79
2021/04/15 06:09:06;;;;;;;5.20;4.32;;;;;;;6.14;66.19;100292.63;3569777;40;20038;-79
2021/04/15 06:11:45;;;;;;;5.35;3.90;;;;;;;6.24;66.24;100298.50;3567838;40;20045;-79
2021/04/15 06:14:20;;;;;;;5.63;4.25;;;;;;;6.33;65.71;100290.53;3576537;40;20038;-80
2021/04/15 06:16:57;;;;;;;5.40;4.32;;;;;;;6.36;65.70;100285.25;3568655;40;20037;-79
2021/04/15 06:19:26;;;;;;;5.57;4.20;;;;;;;6.42;65.63;100285.97;3569999;40;20026;-80
2021/04/15 06:22:01;;;;;;;10.35;6.00;;;;;;;6.46;65.53;100283.31;3575618;40;20049;-78
2021/04/15 06:24:30;;;;;;;8.32;6.40;;;;;;;6.53;65.16;100287.50;3568918;40;20073;-77
2021/04/15 06:27:00;;;;;;;8.90;6.40;;;;;;;6.52;65.43;100285.78;3568653;40;20042;-77
2021/04/15 06:29:32;;;;;;;8.65;5.78;;;;;;;6.60;65.29;100283.88;3569598;40;20037;-80
2021/04/15 06:32:03;;;;;;;6.90;5.32;;;;;;;6.54;65.22;100276.19;3568964;40;20034;-79
2021/04/15 06:34:29;;;;;;;;;;;;;;;6.70;65.01;100282.78;3570252;40;20049;-80
2021/04/15 06:37:03;;;;;;;4.80;4.20;;;;;;;6.53;65.32;100277.09;3568127;40;19933;-77
2021/04/15 06:39:34;;;;;;;6.03;4.30;;;;;;;6.49;65.81;100280.66;3568090;40;20073;-78
2021/04/15 06:42:27;;;;;;;6.43;4.97;;;;;;;6.57;65.25;100276.13;3569064;40;20119;-78
2021/04/15 06:45:18;;;;;;;6.00;4.65;;;;;;;6.68;65.32;100271.56;3568568;40;20073;-78
2021/04/15 06:48:38;;;;;;;7.82;4.93;;;;;;;6.90;64.97;100277.13;3568117;40;20101;-77
2021/04/15 06:51:19;;;;;;;;;;;;;;;7.03;64.79;100274.19;3567789;40;20042;-78
2021/04/15 06:54:04;;;;;;;7.78;5.07;;;;;;;6.91;64.86;100277.09;3567948;40;20833;-77
2021/04/15 06:56:42;;;;;;;7.47;5.10;;;;;;;6.86;64.94;100278.94;3567420;40;20091;-78
2021/04/15 06:59:35;;;;;;;7.05;4.47;;;;;;;6.85;65.00;100278.97;3568374;40;20092;-77
2021/04/15 07:02:09;;;;;;;7.00;3.83;;;;;;;6.96;64.62;100279.59;3566609;40;20034;-78
2021/04/15 07:04:44;;;;;;;5.25;4.40;;;;;;;7.08;64.54;100283.66;3566148;40;20377;-78
2021/04/15 07:07:16;;;;;;;6.07;4.35;;;;;;;7.16;64.13;100284.34;3568398;40;20328;-78
2021/04/15 07:10:14;;;;;;;4.13;3.30;;;;;;;7.09;64.57;100283.63;3568578;40;20034;-81
2021/04/15 07:13:27;;;;;;;9.85;6.57;;;;;;;7.13;64.41;100280.06;3572276;40;20369;-78
2021/04/15 07:16:24;;;;;;;7.07;5.07;;;;;;;7.23;64.46;100285.91;3570444;40;20026;-73
2021/04/15 07:19:29;;;;;;;6.18;4.60;;;;;;;7.24;64.16;100285.00;3572254;40;20034;-79
2021/04/15 07:22:18;;;;;;;7.97;5.78;;;;;;;7.27;63.93;100282.31;3571309;40;20126;-78
2021/04/15 07:25:02;;;;;;;18.25;10.30;;;;;;;7.30;63.96;100290.94;3574252;40;20030;-79
2021/04/15 07:28:04;;;;;;;11.07;6.10;;;;;;;7.31;64.09;100291.81;3571044;40;20038;-79
2021/04/15 07:30:47;;;;;;;8.43;5.55;;;;;;;7.38;63.70;100285.53;3570662;40;20029;-79
2021/04/15 07:33:30;;;;;;;7.75;5.25;;;;;;;7.46;63.51;100293.16;3578344;40;20588;-78
2021/04/15 07:36:17;;;;;;;5.95;4.30;;;;;;;7.49;63.37;100285.25;3571297;40;20061;-79
2021/04/15 07:39:34;;;;;;;10.63;5.53;;;;;;;7.50;63.74;100282.63;3569486;40;20033;-78
2021/04/15 07:42:27;;;;;;;8.05;6.10;;;;;;;7.57;63.62;100278.97;3523284;40;20060;-71
2021/04/15 07:45:01;;;;;;;8.05;5.57;;;;;;;7.63;63.29;100289.22;3520545;40;20043;-72
2021/04/15 07:47:48;;;;;;;;;;;;;;;7.83;63.47;100288.72;3553504;40;20367;-71
2021/04/15 07:50:33;;;;;;;6.13;4.65;;;;;;;7.81;63.01;100281.81;3561702;40;19939;-72
2021/04/15 07:53:46;;;;;;;6.95;4.88;;;;;;;7.83;63.19;100280.03;3570873;40;20037;-72
2021/04/15 07:56:40;;;;;;;6.85;4.65;;;;;;;7.86;63.05;100285.16;3570372;40;20111;-72
2021/04/15 07:59:27;;;;;;;8.55;5.18;;;;;;;8.05;62.69;100281.16;3568798;40;20089;-73
2021/04/15 08:02:26;;;;;;;6.85;5.03;;;;;;;8.16;62.60;100286.97;3570867;40;20109;-73
2021/04/15 08:05:26;;;;;;;6.65;5.32;;;;;;;8.19;62.72;100284.25;3570534;40;20055;-72
2021/04/15 08:08:12;;;;;;;8.93;5.90;;;;;;;8.43;62.31;100287.09;3570475;40;20136;-71
2021/04/15 08:11:15;;;;;;;10.07;7.35;;;;;;;8.58;62.01;100283.19;3569028;40;20073;-72
2021/04/15 08:14:05;;;;;;;6.95;5.13;;;;;;;8.64;61.90;100280.38;3568250;40;20568;-72
2021/04/15 08:16:56;;;;;;;9.77;8.35;;;;;;;8.73;62.05;100282.72;3569520;40;20416;-72
2021/04/15 08:19:52;;;;;;;5.60;4.70;;;;;;;8.76;62.15;100287.88;3569409;40;20077;-72
2021/04/15 08:22:41;;;;;;;4.47;4.00;;;;;;;8.90;61.61;100287.44;3561969;40;20056;-71
2021/04/15 08:25:16;;;;;;;5.30;4.20;;;;;;;9.03;61.13;100275.69;3571885;40;20028;-72
2021/04/15 08:28:16;;;;;;;4.63;3.92;;;;;;;9.18;61.22;100284.81;3571441;40;20276;-71
2021/04/15 08:31:04;;;;;;;5.85;4.20;;;;;;;9.16;61.32;100275.28;3569597;40;20452;-72
2021/04/15 08:33:46;;;;;;;6.57;5.03;;;;;;;9.31;61.15;100284.34;3565705;40;20034;-73
2021/04/15 08:36:34;;;;;;;4.50;3.63;;;;;;;9.15;61.63;100283.13;3561872;40;20081;-72
2021/04/15 08:39:12;;;;;;;6.18;4.32;;;;;;;9.20;61.30;100281.25;3564984;40;20077;-73
2021/04/15 08:41:49;;;;;;;5.88;4.07;;;;;;;9.37;60.89;100286.81;3558514;40;20034;-72
2021/04/15 08:44:38;;;;;;;4.45;3.42;;;;;;;9.58;60.59;100276.50;3560027;40;20038;-74
2021/04/15 08:47:16;;;;;;;5.97;4.05;;;;;;;9.87;60.09;100283.38;3566502;40;20115;-74
2021/04/15 08:49:53;;;;;;;4.95;4.00;;;;;;;9.83;59.81;100279.16;3563259;40;20037;-75
2021/04/15 08:52:35;;;;;;;7.05;3.90;;;;;;;9.93;59.96;100288.38;3557828;40;20046;-72
2021/04/15 08:55:10;;;;;;;6.65;4.38;;;;;;;9.98;59.58;100276.81;3564850;40;20036;-74
2021/04/15 08:57:52;;;;;;;4.25;3.10;;;;;;;10.01;59.37;100275.91;3572810;40;20034;-73
2021/04/15 09:00:26;;;;;;;3.65;3.13;;;;;;;10.06;59.20;100280.06;3570681;40;20038;-74
2021/04/15 09:03:19;;;;;;;3.70;3.05;;;;;;;10.39;58.65;100274.50;3562896;40;20038;-73
2021/04/15 09:06:07;;;;;;;5.72;3.38;;;;;;;10.65;58.05;100277.03;3566534;40;20086;-73
2021/04/15 09:08:42;;;;;;;3.17;2.85;;;;;;;10.48;58.26;100281.19;3561043;40;20040;-74
2021/04/15 09:11:15;;;;;;;4.40;3.45;;;;;;;10.26;58.85;100274.13;3561541;40;20540;-74
2021/04/15 09:13:53;;;;;;;3.90;3.15;;;;;;;10.15;59.27;100271.00;3567808;40;20045;-74
2021/04/15 09:16:29;;;;;;;3.97;3.33;;;;;;;10.36;59.06;100274.63;3562514;40;20030;-74
2021/04/15 09:19:06;;;;;;;4.07;3.53;;;;;;;10.38;58.65;100278.03;3565675;40;20037;-74
2021/04/15 09:21:46;;;;;;;3.95;3.40;;;;;;;10.32;58.79;100273.03;3564117;40;20057;-73
2021/04/15 09:24:19;;;;;;;4.05;3.20;;;;;;;10.00;59.57;100275.03;3562550;40;20107;-74
2021/04/15 09:27:15;;;;;;;8.07;5.60;;;;;;;9.77;59.94;100277.56;3563094;40;20167;-73
2021/04/15 09:29:54;;;;;;;6.03;4.85;;;;;;;9.62;60.22;100280.75;3558580;40;20074;-74
2021/04/15 09:32:26;;;;;;;4.70;4.03;;;;;;;9.67;60.06;100278.81;3561535;40;20100;-80
2021/04/15 09:35:12;;;;;;;6.82;4.90;;;;;;;9.74;59.67;100277.69;3562278;40;20056;-78
2021/04/15 09:38:16;;;;;;;6.10;4.93;;;;;;;9.99;59.39;100280.31;3563423;40;20077;-82
2021/04/15 09:40:56;;;;;;;9.13;6.85;;;;;;;10.16;58.61;100277.09;3565838;40;20096;-82
2021/04/15 09:43:47;;;;;;;5.90;5.25;;;;;;;10.41;58.13;100279.69;3574320;40;20037;-82
2021/04/15 09:46:18;;;;;;;5.43;3.63;;;;;;;10.54;58.03;100279.19;3565687;40;20041;-83
2021/04/15 09:49:15;;;;;;;4.97;3.35;;;;;;;10.64;57.97;100279.72;3562169;40;20387;-81
2021/04/15 09:52:06;;;;;;;5.75;4.15;;;;;;;10.67;58.22;100277.81;3568570;40;20078;-79
2021/04/15 09:54:46;;;;;;;5.00;4.28;;;;;;;10.71;57.88;100280.31;3573564;40;20029;-83
2021/04/15 09:57:28;;;;;;;5.25;4.20;;;;;;;10.57;57.83;100276.44;3565163;40;20119;-74
2021/04/15 10:00:19;;;;;;;4.70;3.70;;;;;;;10.40;58.39;100278.84;3563302;40;20047;-72
2021/04/15 10:03:17;;;;;;;5.45;3.80;;;;;;;10.38;58.34;100278.03;3560185;40;20033;-73
2021/04/15 10:05:59;;;;;;;4.43;3.45;;;;;;;10.44;58.36;100280.47;3556354;40;20338;-72
2021/04/15 10:08:35;;;;;;;5.15;4.22;;;;;;;10.51;58.24;100278.44;3571302;40;20029;-72
2021/04/15 10:11:14;;;;;;;5.85;3.92;;;;;;;10.47;58.22;100279.47;3561489;40;20045;-72
2021/04/15 10:13:52;;;;;;;5.15;3.90;;;;;;;10.32;58.69;100276.50;3564087;40;20040;-72
2021/04/15 10:16:22;;;;;;;5.18;3.90;;;;;;;10.18;58.94;100276.13;3564491;40;20048;-73
2021/04/15 10:19:47;;;;;;;5.70;4.28;;;;;;;10.20;59.49;100273.44;3565006;40;20041;-72
2021/04/15 10:22:29;;;;;;;4.05;3.65;;;;;;;10.27;59.01;100277.59;3565599;40;20052;-71
2021/04/15 10:25:06;;;;;;;5.35;4.18;;;;;;;10.22;58.78;100276.91;3565496;40;20033;-73
2021/04/15 10:27:56;;;;;;;4.60;3.72;;;;;;;10.15;59.00;100288.47;3567282;40;20112;-71
2021/04/15 10:30:48;;;;;;;4.55;3.85;;;;;;;9.92;59.35;100273.59;3564227;40;20333;-71
2021/04/15 10:33:24;;;;;;;;;;;;;;;9.92;59.88;100281.44;3566107;40;20302;-71
2021/04/15 10:36:22;;;;;;;4.05;3.42;;;;;;;9.58;60.23;100272.16;3566629;40;19933;-72
2021/04/15 10:39:24;;;;;;;4.57;3.58;;;;;;;9.34;60.72;100283.41;3566518;40;20069;-73
2021/04/15 10:42:17;;;;;;;6.95;4.95;;;;;;;9.27;60.85;100279.28;3541291;40;20126;-72
2021/04/15 10:45:34;;;;;;;5.82;5.00;;;;;;;9.31;60.64;100276.50;3569306;40;20026;-72
2021/04/15 10:48:27;;;;;;;6.65;5.25;;;;;;;9.23;60.98;100275.91;3532999;40;20034;-72
2021/04/15 10:50:57;;;;;;;8.73;6.20;;;;;;;9.35;60.74;100283.34;3549605;40;20319;-72
2021/04/15 10:53:44;;;;;;;6.25;4.82;;;;;;;9.52;60.15;100277.56;3565666;40;20033;-72
2021/04/15 10:56:45;;;;;;;7.70;4.82;;;;;;;9.53;60.32;100271.41;3571233;40;20038;-72
2021/04/15 10:59:36;;;;;;;6.20;4.65;;;;;;;9.52;60.52;100274.09;3570399;40;20123;-72
2021/04/15 11:02:26;;;;;;;6.13;5.47;;;;;;;9.48;60.62;100284.66;3569501;40;20033;-72
2021/04/15 11:04:56;;;;;;;7.18;5.00;;;;;;;9.40;60.29;100278.84;3566166;40;20062;-71
2021/04/15 11:07:25;;;;;;;6.55;4.45;;;;;;;9.25;60.82;100281.09;3566266;40;20037;-72
2021/04/15 11:09:54;;;;;;;4.82;3.88;;;;;;;9.22;60.58;100289.06;3576146;40;20036;-71
2021/04/15 11:12:30;;;;;;;4.30;3.88;;;;;;;9.07;60.88;100280.78;3564712;40;20046;-71
2021/04/15 11:15:02;;;;;;;5.97;4.15;;;;;;;9.11;60.90;100281.53;3574661;40;20049;-72
2021/04/15 11:17:29;;;;;;;;;;;;;;;9.33;60.86;100281.69;3567312;40;20413;-72
2021/04/15 11:20:15;;;;;;;7.00;5.40;;;;;;;9.25;60.87;100284.56;3567077;40;19963;-71
2021/04/15 11:22:51;;;;;;;6.97;5.28;;;;;;;9.27;60.48;100284.53;3567376;40;20053;-72
2021/04/15 11:25:23;;;;;;;5.50;4.75;;;;;;;9.32;60.78;100288.69;3582596;40;20039;-71
2021/04/15 11:27:51;;;;;;;6.40;4.90;;;;;;;9.52;60.31;100287.19;3574371;40;20120;-71
2021/04/15 11:30:38;;;;;;;5.53;4.50;;;;;;;9.56;60.20;100283.53;3566288;40;20160;-70
2021/04/15 11:33:07;;;;;;;5.05;4.55;;;;;;;9.57;60.46;100285.25;3567327;40;20037;-71
2021/04/15 11:35:34;;;;;;;6.82;5.22;;;;;;;9.62;60.27;100284.22;3566812;40;20049;-71
2021/04/15 11:38:21;;;;;;;6.85;5.10;;;;;;;9.71;60.28;100286.50;3567031;40;20037;-71
2021/04/15 11:40:49;;;;;;;6.65;4.70;;;;;;;9.69;60.21;100285.72;3567323;40;20046;-71
2021/04/15 11:43:30;;;;;;;5.05;4.47;;;;;;;9.65;60.21;100288.50;3566090;40;20044;-71
2021/04/15 11:46:13;;;;;;;6.07;4.13;;;;;;;9.65;60.21;100284.09;3567075;40;20110;-70
2021/04/15 11:48:40;;;;;;;8.13;5.28;;;;;;;9.72;59.97;100282.13;3565891;40;20065;-71
2021/04/15 11:51:14;;;;;;;5.63;4.57;;;;;;;9.69;59.95;100283.09;3566678;40;20077;-71
2021/04/15 11:53:49;;;;;;;6.43;4.57;;;;;;;9.70;60.15;100284.81;3562167;40;20041;-71
2021/04/15 11:56:26;;;;;;;6.82;4.10;;;;;;;9.68;60.20;100293.63;3565584;40;20043;-71
2021/04/15 11:58:54;;;;;;;6.10;4.05;;;;;;;9.68;59.85;100293.63;3575889;40;20324;-70
2021/04/15 12:01:25;;;;;;;4.95;3.97;;;;;;;9.68;59.96;100293.63;3568211;40;20041;-70
2021/04/15 12:03:55;;;;;;;;;;;;;;;9.82;59.86;100291.38;3569284;40;20405;-70
2021/04/15 12:06:25;;;;;;;5.63;4.07;;;;;;;9.66;59.87;100295.44;3567656;40;20209;-71
2021/04/15 12:08:53;;;;;;;5.88;4.22;;;;;;;9.68;59.64;100294.47;3568584;40;20041;-71
2021/04/15 12:11:24;;;;;;;6.70;5.13;;;;;;;9.73;59.75;100296.91;3567963;40;20044;-71
2021/04/15 12:13:55;;;;;;;7.68;5.68;;;;;;;9.92;59.33;100295.38;3567529;40;20082;-71
2021/04/15 12:16:23;;;;;;;;;;;;;;;10.11;59.44;100292.13;3568354;40;20326;-72
2021/04/15 12:18:54;;;;;;;5.47;4.63;;;;;;;9.93;59.24;100289.25;3574584;40;19990;-70
2021/04/15 12:21:27;;;;;;;6.95;4.47;;;;;;;9.86;59.70;100287.75;3569731;40;20049;-71